createdAt,value
2018-09-29T00:00:17.527Z,43.75
2018-09-29T00:01:27.210Z,43.46
2018-09-29T00:02:36.881Z,43.46
2018-09-29T00:03:46.325Z,43.65
2018-09-29T00:04:56.148Z,43.46
2018-09-29T00:06:05.079Z,43.27
2018-09-29T00:07:14.243Z,43.75
2018-09-29T00:08:24.200Z,43.55
2018-09-29T00:09:33.363Z,43.55
2018-09-29T00:10:42.794Z,43.55
2018-09-29T00:11:51.961Z,43.55
2018-09-29T00:13:01.875Z,43.46
2018-09-29T00:14:11.039Z,43.46
2018-09-29T00:15:20.466Z,43.65
2018-09-29T00:16:30.522Z,43.46
2018-09-29T00:17:40.469Z,43.55
2018-09-29T00:18:49.892Z,43.37
2018-09-29T00:19:59.057Z,43.46
2018-09-29T00:21:08.747Z,43.55
2018-09-29T00:22:18.435Z,43.55
2018-09-29T00:23:28.363Z,43.46
2018-09-29T00:24:38.281Z,43.55
2018-09-29T00:25:47.945Z,43.55
2018-09-29T00:26:57.632Z,43.65
2018-09-29T00:28:06.529Z,43.65
2018-09-29T00:29:16.205Z,43.46
2018-09-29T00:30:25.653Z,43.55
2018-09-29T00:31:35.341Z,43.65
2018-09-29T00:32:45.289Z,43.65
2018-09-29T00:33:54.723Z,43.55
2018-09-29T00:35:04.664Z,43.55
2018-09-29T00:36:14.620Z,43.65
2018-09-29T00:37:23.535Z,43.65
2018-09-29T00:38:33.501Z,43.65
2018-09-29T00:39:43.231Z,43.75
2018-09-29T00:40:52.633Z,43.65
2018-09-29T00:42:01.797Z,43.75
2018-09-29T00:43:11.735Z,43.65
2018-09-29T00:44:21.417Z,43.65
2018-09-29T00:45:31.096Z,43.65
2018-09-29T00:46:40.788Z,43.55
2018-09-29T00:47:50.722Z,43.85
2018-09-29T00:49:00.418Z,43.65
2018-09-29T00:50:09.570Z,43.65
2018-09-29T00:51:18.993Z,43.85
2018-09-29T00:52:27.892Z,43.55
2018-09-29T00:53:37.090Z,43.85
2018-09-29T00:54:46.806Z,43.85
2018-09-29T00:55:56.003Z,43.46
2018-09-29T00:57:05.207Z,43.55
2018-09-29T00:58:14.659Z,43.46
2018-09-29T00:59:24.378Z,43.46
2018-09-29T01:00:33.589Z,43.46
2018-09-29T01:01:43.285Z,43.46
2018-09-29T01:02:52.507Z,43.07
2018-09-29T01:04:02.480Z,43.17
2018-09-29T01:05:12.450Z,43.27
2018-09-29T01:06:21.914Z,43.07
2018-09-29T01:07:32.040Z,43.07
2018-09-29T01:08:41.241Z,43.17
2018-09-29T01:09:50.958Z,43.17
2018-09-29T01:10:59.859Z,42.88
2018-09-29T01:12:09.021Z,43.27
2018-09-29T01:13:18.729Z,43.27
2018-09-29T01:14:27.881Z,43.07
2018-09-29T01:15:37.309Z,43.37
2018-09-29T01:16:46.475Z,43.27
2018-09-29T01:17:55.903Z,43.17
2018-09-29T01:19:05.084Z,43.17
2018-09-29T01:20:14.250Z,42.88
2018-09-29T01:21:23.672Z,43.27
2018-09-29T01:22:32.850Z,42.97
2018-09-29T01:23:42.529Z,42.97
2018-09-29T01:24:52.214Z,42.97
2018-09-29T01:26:01.369Z,43.07
2018-09-29T01:27:10.276Z,42.97
2018-09-29T01:28:19.453Z,42.97
2018-09-29T01:29:29.138Z,43.17
2018-09-29T01:30:38.023Z,42.88
2018-09-29T01:31:47.444Z,43.07
2018-09-29T01:32:56.872Z,42.88
2018-09-29T01:34:06.026Z,43.07
2018-09-29T01:35:15.447Z,42.88
2018-09-29T01:36:24.368Z,42.88
2018-09-29T01:37:33.793Z,42.79
2018-09-29T01:38:43.458Z,42.97
2018-09-29T01:39:53.138Z,42.79
2018-09-29T01:41:02.032Z,42.88
2018-09-29T01:42:11.707Z,42.88
2018-09-29T01:43:21.137Z,42.88
2018-09-29T01:44:30.816Z,42.88
2018-09-29T01:45:40.504Z,42.79
2018-09-29T01:46:50.431Z,42.79
2018-09-29T01:47:59.601Z,42.79
2018-09-29T01:49:09.292Z,42.69
2018-09-29T01:50:18.972Z,42.97
2018-09-29T01:51:27.879Z,42.69
2018-09-29T01:52:37.584Z,43.07
2018-09-29T01:53:47.248Z,43.07
2018-09-29T01:54:56.182Z,43.07
2018-09-29T01:56:05.104Z,43.07
2018-09-29T01:57:14.523Z,43.07
2018-09-29T01:58:24.209Z,43.07
2018-09-29T01:59:33.902Z,42.97
2018-09-29T02:00:43.348Z,43.07
2018-09-29T02:01:52.773Z,42.69
2018-09-29T02:03:02.454Z,42.69
2018-09-29T02:04:12.129Z,42.69
2018-09-29T02:05:21.564Z,42.69
2018-09-29T02:06:30.982Z,42.79
2018-09-29T02:07:40.141Z,42.88
2018-09-29T02:08:49.808Z,42.79
2018-09-29T02:09:58.973Z,42.79
2018-09-29T02:11:08.388Z,42.79
2018-09-29T02:12:17.822Z,42.88
2018-09-29T02:13:27.536Z,42.69
2018-09-29T02:14:36.953Z,42.69
2018-09-29T02:15:46.098Z,42.79
2018-09-29T02:16:55.789Z,42.79
2018-09-29T02:18:04.996Z,42.79
2018-09-29T02:19:14.420Z,42.79
2018-09-29T02:20:23.842Z,42.79
2018-09-29T02:21:33.520Z,42.88
2018-09-29T02:22:42.936Z,42.69
2018-09-29T02:23:52.122Z,42.88
2018-09-29T02:25:01.539Z,42.88
2018-09-29T02:26:11.214Z,42.79
2018-09-29T02:27:20.377Z,42.88
2018-09-29T02:28:29.820Z,42.79
2018-09-29T02:29:39.330Z,42.69
2018-09-29T02:30:49.035Z,42.69
2018-09-29T02:31:58.713Z,42.88
2018-09-29T02:33:08.676Z,42.69
2018-09-29T02:34:18.126Z,42.59
2018-09-29T02:35:27.589Z,42.59
2018-09-29T02:36:37.310Z,42.79
2018-09-29T02:37:46.477Z,42.79
2018-09-29T02:38:55.693Z,42.79
2018-09-29T02:40:04.890Z,42.57
2018-09-29T02:41:14.825Z,42.69
2018-09-29T02:42:24.741Z,42.67
2018-09-29T02:43:34.419Z,42.4
2018-09-29T02:44:44.104Z,42.47
2018-09-29T02:45:54.034Z,42.47
2018-09-29T02:47:03.445Z,42.69
2018-09-29T02:48:12.898Z,42.57
2018-09-29T02:49:22.053Z,42.57
2018-09-29T02:50:31.477Z,42.59
2018-09-29T02:51:41.154Z,42.47
2018-09-29T02:52:50.594Z,42.57
2018-09-29T02:53:59.497Z,42.09
2018-09-29T02:55:08.647Z,42.28
2018-09-29T02:56:18.080Z,42.28
2018-09-29T02:57:27.758Z,42.38
2018-09-29T02:58:37.187Z,42.38
2018-09-29T02:59:46.870Z,42.09
2018-09-29T03:00:56.634Z,42.47
2018-09-29T03:02:06.056Z,42.28
2018-09-29T03:03:15.478Z,42.49
2018-09-29T03:04:24.377Z,42.57
2018-09-29T03:05:33.556Z,42.57
2018-09-29T03:06:43.512Z,42.19
2018-09-29T03:07:53.448Z,42.28
2018-09-29T03:09:03.395Z,42.28
2018-09-29T03:10:13.330Z,42.47
2018-09-29T03:11:22.757Z,42.28
2018-09-29T03:12:31.930Z,42.28
2018-09-29T03:13:41.091Z,42.47
2018-09-29T03:14:50.250Z,42.47
2018-09-29T03:15:59.922Z,42.47
2018-09-29T03:17:09.584Z,42.38
2018-09-29T03:18:18.760Z,42.47
2018-09-29T03:19:28.917Z,42.47
2018-09-29T03:20:38.627Z,42.57
2018-09-29T03:21:47.537Z,42.57
2018-09-29T03:22:57.242Z,42.28
2018-09-29T03:24:06.700Z,42.28
2018-09-29T03:25:16.646Z,42.47
2018-09-29T03:26:26.312Z,42.19
2018-09-29T03:27:36.255Z,42.28
2018-09-29T03:28:45.683Z,42.09
2018-09-29T03:29:54.832Z,42.38
2018-09-29T03:31:04.256Z,42.28
2018-09-29T03:32:14.249Z,42.28
2018-09-29T03:33:23.949Z,42.38
2018-09-29T03:34:33.131Z,42.19
2018-09-29T03:35:42.048Z,42.38
2018-09-29T03:36:51.718Z,42.19
2018-09-29T03:38:00.619Z,42.38
2018-09-29T03:39:09.527Z,42.28
2018-09-29T03:40:19.209Z,42.28
2018-09-29T03:41:28.887Z,42.28
2018-09-29T03:42:38.836Z,42.19
2018-09-29T03:43:48.517Z,42.19
2018-09-29T03:44:57.693Z,41.89
2018-09-29T03:46:07.131Z,42.19
2018-09-29T03:47:16.039Z,42.38
2018-09-29T03:48:25.459Z,41.89
2018-09-29T03:49:34.884Z,42.09
2018-09-29T03:50:44.579Z,42.09
2018-09-29T03:51:54.514Z,41.89
2018-09-29T03:53:04.202Z,41.89
2018-09-29T03:54:13.868Z,42.09
2018-09-29T03:55:23.561Z,41.99
2018-09-29T03:56:33.017Z,41.89
2018-09-29T03:57:42.427Z,42.09
2018-09-29T03:58:51.331Z,42.28
2018-09-29T04:00:00.748Z,42.19
2018-09-29T04:01:10.178Z,42.28
2018-09-29T04:02:19.086Z,42.28
2018-09-29T04:03:27.989Z,42.28
2018-09-29T04:04:37.147Z,42.28
2018-09-29T04:05:46.576Z,42.19
2018-09-29T04:06:56.005Z,42.19
2018-09-29T04:08:05.178Z,42.28
2018-09-29T04:09:14.590Z,42.28
2018-09-29T04:10:24.319Z,42.28
2018-09-29T04:11:34.022Z,41.99
2018-09-29T04:12:43.966Z,42.38
2018-09-29T04:13:53.353Z,42.19
2018-09-29T04:15:03.473Z,42.19
2018-09-29T04:16:12.888Z,42.19
2018-09-29T04:17:22.569Z,41.99
2018-09-29T04:18:31.995Z,41.99
2018-09-29T04:19:41.409Z,41.99
2018-09-29T04:20:50.563Z,41.99
2018-09-29T04:21:59.999Z,42.09
2018-09-29T04:23:09.675Z,41.99
2018-09-29T04:24:19.106Z,41.99
2018-09-29T04:25:28.003Z,42.19
2018-09-29T04:26:37.433Z,41.99
2018-09-29T04:27:46.854Z,42.09
2018-09-29T04:28:56.273Z,41.99
2018-09-29T04:30:05.966Z,42.19
2018-09-29T04:31:15.652Z,41.99
2018-09-29T04:32:25.360Z,41.99
2018-09-29T04:33:35.060Z,42.09
2018-09-29T04:34:45.019Z,41.99
2018-09-29T04:35:54.948Z,41.89
2018-09-29T04:37:04.660Z,41.89
2018-09-29T04:38:14.078Z,42.09
2018-09-29T04:39:23.488Z,41.89
2018-09-29T04:40:32.640Z,41.89
2018-09-29T04:41:42.064Z,41.89
2018-09-29T04:42:52.004Z,42.09
2018-09-29T04:44:01.217Z,41.89
2018-09-29T04:45:10.629Z,41.8
2018-09-29T04:46:19.789Z,41.99
2018-09-29T04:47:28.959Z,41.99
2018-09-29T04:48:38.895Z,41.99
2018-09-29T04:49:48.321Z,41.99
2018-09-29T04:50:58.304Z,41.89
2018-09-29T04:52:07.220Z,41.89
2018-09-29T04:53:16.899Z,41.89
2018-09-29T04:54:26.328Z,41.89
2018-09-29T04:55:35.284Z,41.89
2018-09-29T04:56:44.689Z,41.99
2018-09-29T04:57:54.365Z,41.99
2018-09-29T04:59:03.781Z,42.09
2018-09-29T05:00:13.496Z,41.99
2018-09-29T05:01:23.439Z,41.89
2018-09-29T05:02:32.856Z,41.99
2018-09-29T05:03:42.274Z,41.8
2018-09-29T05:04:51.954Z,42.09
2018-09-29T05:06:01.368Z,41.89
2018-09-29T05:07:10.525Z,42.09
2018-09-29T05:08:20.214Z,42.09
2018-09-29T05:09:28.859Z,41.99
2018-09-29T05:10:38.289Z,41.99
2018-09-29T05:11:47.462Z,42.09
2018-09-29T05:12:56.895Z,41.89
2018-09-29T05:14:06.588Z,42.19
2018-09-29T05:15:16.353Z,42.19
2018-09-29T05:16:25.783Z,42.09
2018-09-29T05:17:35.209Z,41.89
2018-09-29T05:18:45.176Z,41.71
2018-09-29T05:19:55.112Z,41.8
2018-09-29T05:21:04.547Z,41.71
2018-09-29T05:22:14.233Z,41.99
2018-09-29T05:23:23.757Z,41.71
2018-09-29T05:24:33.240Z,41.8
2018-09-29T05:25:42.209Z,42.19
2018-09-29T05:26:51.369Z,42.28
2018-09-29T05:28:00.800Z,41.89
2018-09-29T05:29:09.963Z,41.61
2018-09-29T05:30:19.121Z,41.8
2018-09-29T05:31:29.069Z,41.89
2018-09-29T05:32:39.024Z,41.71
2018-09-29T05:33:48.233Z,41.99
2018-09-29T05:34:57.644Z,41.89
2018-09-29T05:36:06.542Z,41.99
2018-09-29T05:37:15.974Z,41.8
2018-09-29T05:38:25.287Z,41.99
2018-09-29T05:39:35.455Z,41.71
2018-09-29T05:40:45.157Z,41.71
2018-09-29T05:41:54.832Z,41.61
2018-09-29T05:43:04.001Z,41.61
2018-09-29T05:44:13.418Z,41.71
2018-09-29T05:45:22.850Z,41.71
2018-09-29T05:46:32.030Z,41.8
2018-09-29T05:47:41.701Z,41.61
2018-09-29T05:48:51.117Z,41.71
2018-09-29T05:50:00.790Z,41.71
2018-09-29T05:51:10.510Z,41.61
2018-09-29T05:52:19.749Z,41.71
2018-09-29T05:53:29.175Z,41.71
2018-09-29T05:54:38.073Z,41.71
2018-09-29T05:55:47.760Z,41.71
2018-09-29T05:56:57.461Z,41.8
2018-09-29T05:58:06.366Z,41.61
2018-09-29T05:59:15.808Z,41.8
2018-09-29T06:00:25.032Z,41.71
2018-09-29T06:01:34.808Z,41.8
2018-09-29T06:02:44.504Z,41.71
2018-09-29T06:03:53.924Z,41.8
2018-09-29T06:05:03.154Z,41.8
2018-09-29T06:06:12.577Z,41.71
2018-09-29T06:07:22.330Z,41.71
2018-09-29T06:08:32.743Z,41.89
2018-09-29T06:09:42.445Z,41.71
2018-09-29T06:10:51.853Z,41.61
2018-09-29T06:12:01.035Z,41.71
2018-09-29T06:13:10.835Z,41.99
2018-09-29T06:14:21.150Z,41.99
2018-09-29T06:15:30.316Z,41.61
2018-09-29T06:16:39.726Z,41.8
2018-09-29T06:17:49.666Z,41.61
2018-09-29T06:18:59.356Z,41.61
2018-09-29T06:20:09.031Z,41.51
2018-09-29T06:21:18.445Z,41.51
2018-09-29T06:22:28.114Z,41.51
2018-09-29T06:23:37.522Z,41.51
2018-09-29T06:24:47.206Z,41.49
2018-09-29T06:25:56.355Z,41.61
2018-09-29T06:27:05.265Z,41.61
2018-09-29T06:28:14.968Z,41.61
2018-09-29T06:29:24.418Z,41.8
2018-09-29T06:30:33.860Z,41.71
2018-09-29T06:31:43.006Z,41.61
2018-09-29T06:32:52.944Z,41.61
2018-09-29T06:34:02.100Z,41.61
2018-09-29T06:35:12.149Z,41.61
2018-09-29T06:36:21.820Z,41.71
2018-09-29T06:37:31.240Z,41.71
2018-09-29T06:38:40.904Z,41.78
2018-09-29T06:39:50.584Z,41.71
2018-09-29T06:40:59.889Z,41.71
2018-09-29T06:42:09.303Z,41.71
2018-09-29T06:43:19.241Z,41.89
2018-09-29T06:44:28.670Z,41.51
2018-09-29T06:45:38.080Z,41.8
2018-09-29T06:46:47.755Z,41.51
2018-09-29T06:47:57.801Z,41.51
2018-09-29T06:49:07.302Z,41.51
2018-09-29T06:50:16.971Z,41.32
2018-09-29T06:51:26.413Z,41.41
2018-09-29T06:52:36.345Z,41.51
2018-09-29T06:53:45.248Z,41.22
2018-09-29T06:54:54.926Z,41.41
2018-09-29T06:56:04.085Z,41.41
2018-09-29T06:57:13.536Z,41.41
2018-09-29T06:58:23.209Z,41.41
2018-09-29T06:59:32.623Z,41.41
2018-09-29T07:00:42.310Z,41.41
2018-09-29T07:01:51.712Z,41.32
2018-09-29T07:03:01.482Z,41.32
2018-09-29T07:04:11.454Z,41.32
2018-09-29T07:05:20.658Z,41.51
2018-09-29T07:06:29.900Z,41.32
2018-09-29T07:07:40.273Z,41.32
2018-09-29T07:08:49.703Z,41.32
2018-09-29T07:09:59.138Z,41.32
2018-09-29T07:11:08.565Z,41.3
2018-09-29T07:12:17.744Z,41.32
2018-09-29T07:13:27.676Z,41.2
2018-09-29T07:14:37.624Z,41.41
2018-09-29T07:15:47.613Z,41.22
2018-09-29T07:16:57.091Z,41.3
2018-09-29T07:18:06.767Z,41.13
2018-09-29T07:19:16.443Z,41.32
2018-09-29T07:20:26.376Z,41.13
2018-09-29T07:21:36.038Z,41.32
2018-09-29T07:22:46.065Z,41.3
2018-09-29T07:23:55.746Z,41.32
2018-09-29T07:25:05.501Z,41.13
2018-09-29T07:26:14.919Z,41.13
2018-09-29T07:27:24.592Z,41.22
2018-09-29T07:28:34.028Z,41.22
2018-09-29T07:29:43.582Z,41.22
2018-09-29T07:30:52.865Z,41.22
2018-09-29T07:32:04.125Z,41.22
2018-09-29T07:33:13.802Z,41.13
2018-09-29T07:34:23.214Z,41.13
2018-09-29T07:35:32.377Z,41.32
2018-09-29T07:36:41.802Z,41.03
2018-09-29T07:37:51.759Z,41.13
2018-09-29T07:39:01.528Z,40.94
2018-09-29T07:40:10.929Z,41.13
2018-09-29T07:41:20.621Z,40.94
2018-09-29T07:42:30.028Z,41.13
2018-09-29T07:43:39.720Z,41.13
2018-09-29T07:44:49.150Z,40.84
2018-09-29T07:45:58.565Z,41.13
2018-09-29T07:47:07.725Z,40.94
2018-09-29T07:48:17.677Z,41.03
2018-09-29T07:49:27.415Z,41.11
2018-09-29T07:50:37.095Z,41.03
2018-09-29T07:51:46.521Z,41.03
2018-09-29T07:52:56.495Z,41.03
2018-09-29T07:54:06.496Z,40.94
2018-09-29T07:55:15.685Z,40.94
2018-09-29T07:56:25.363Z,40.81
2018-09-29T07:57:35.348Z,40.74
2018-09-29T07:58:44.791Z,40.84
2018-09-29T07:59:54.217Z,40.74
2018-09-29T08:01:03.902Z,40.81
2018-09-29T08:02:14.084Z,40.84
2018-09-29T08:03:23.513Z,40.84
2018-09-29T08:04:33.199Z,40.81
2018-09-29T08:05:42.367Z,40.72
2018-09-29T08:06:52.056Z,40.94
2018-09-29T08:08:01.742Z,40.94
2018-09-29T08:09:10.919Z,40.94
2018-09-29T08:10:20.401Z,40.64
2018-09-29T08:11:29.839Z,40.94
2018-09-29T08:12:39.313Z,40.84
2018-09-29T08:13:48.735Z,40.74
2018-09-29T08:14:58.185Z,40.91
2018-09-29T08:16:07.675Z,40.91
2018-09-29T08:17:17.118Z,40.84
2018-09-29T08:18:26.291Z,40.94
2018-09-29T08:19:35.980Z,40.84
2018-09-29T08:20:45.694Z,40.64
2018-09-29T08:21:55.118Z,40.84
2018-09-29T08:23:04.038Z,40.74
2018-09-29T08:24:13.232Z,40.43
2018-09-29T08:25:22.864Z,40.53
2018-09-29T08:26:32.044Z,40.53
2018-09-29T08:27:42.008Z,40.63
2018-09-29T08:28:51.428Z,40.74
2018-09-29T08:30:01.113Z,40.63
2018-09-29T08:31:10.813Z,40.63
2018-09-29T08:32:20.370Z,40.72
2018-09-29T08:33:30.917Z,40.72
2018-09-29T08:34:40.101Z,40.72
2018-09-29T08:35:49.782Z,40.53
2018-09-29T08:36:58.686Z,40.55
2018-09-29T08:38:08.794Z,40.53
2018-09-29T08:39:18.765Z,40.63
2018-09-29T08:40:28.916Z,40.53
2018-09-29T08:41:38.591Z,40.43
2018-09-29T08:42:48.297Z,40.43
2018-09-29T08:43:57.727Z,40.53
2018-09-29T08:45:06.898Z,40.43
2018-09-29T08:46:16.345Z,40.43
2018-09-29T08:47:26.053Z,40.53
2018-09-29T08:48:35.210Z,40.53
2018-09-29T08:49:44.639Z,40.53
2018-09-29T08:50:53.551Z,40.53
2018-09-29T08:52:02.711Z,40.43
2018-09-29T08:53:11.961Z,40.53
2018-09-29T08:54:21.886Z,40.72
2018-09-29T08:55:31.581Z,40.63
2018-09-29T08:56:41.264Z,40.53
2018-09-29T08:57:50.944Z,40.53
2018-09-29T08:59:00.624Z,40.55
2018-09-29T09:00:10.033Z,40.43
2018-09-29T09:01:19.486Z,40.45
2018-09-29T09:02:29.207Z,40.55
2018-09-29T09:03:38.666Z,40.36
2018-09-29T09:04:48.354Z,40.74
2018-09-29T09:05:57.783Z,40.74
2018-09-29T09:07:06.969Z,40.74
2018-09-29T09:08:15.885Z,40.64
2018-09-29T09:09:25.542Z,40.64
2018-09-29T09:10:35.589Z,40.64
2018-09-29T09:11:45.543Z,40.26
2018-09-29T09:12:55.521Z,40.64
2018-09-29T09:14:04.706Z,40.16
2018-09-29T09:15:14.505Z,40.36
2018-09-29T09:16:23.415Z,40.26
2018-09-29T09:17:32.824Z,40.74
2018-09-29T09:18:42.497Z,40.64
2018-09-29T09:19:51.670Z,40.64
2018-09-29T09:21:01.099Z,40.26
2018-09-29T09:22:10.793Z,40.16
2018-09-29T09:23:20.530Z,40.26
2018-09-29T09:24:30.336Z,40.55
2018-09-29T09:25:40.020Z,40.16
2018-09-29T09:26:50.003Z,40.36
2018-09-29T09:27:59.973Z,40.64
2018-09-29T09:29:09.402Z,40.36
2018-09-29T09:30:19.580Z,40.36
2018-09-29T09:31:29.759Z,40.26
2018-09-29T09:32:39.523Z,40.64
2018-09-29T09:33:48.449Z,40.36
2018-09-29T09:34:58.154Z,40.74
2018-09-29T09:36:07.602Z,40.64
2018-09-29T09:37:16.849Z,40.64
2018-09-29T09:38:26.283Z,40.26
2018-09-29T09:39:35.460Z,40.74
2018-09-29T09:40:44.885Z,40.55
2018-09-29T09:41:54.820Z,40.74
2018-09-29T09:43:04.272Z,39.87
2018-09-29T09:44:13.701Z,40.26
2018-09-29T09:45:23.403Z,40.55
2018-09-29T09:46:32.840Z,40.55
2018-09-29T09:47:42.525Z,40.64
2018-09-29T09:48:52.465Z,40.64
2018-09-29T09:50:01.935Z,40.64
2018-09-29T09:51:11.359Z,40.74
2018-09-29T09:52:21.562Z,40.74
2018-09-29T09:53:31.009Z,40.74
2018-09-29T09:54:40.183Z,40.64
2018-09-29T09:55:50.170Z,40.64
2018-09-29T09:57:00.167Z,40.74
2018-09-29T09:58:09.603Z,40.74
2018-09-29T09:59:19.554Z,40.55
2018-09-29T10:00:28.776Z,40.64
2018-09-29T10:01:38.718Z,40.36
2018-09-29T10:02:47.880Z,40.45
2018-09-29T10:03:57.046Z,40.45
2018-09-29T10:05:06.209Z,40.45
2018-09-29T10:06:15.659Z,40.55
2018-09-29T10:07:25.431Z,40.45
2018-09-29T10:08:34.650Z,40.55
2018-09-29T10:09:44.076Z,40.45
2018-09-29T10:10:53.754Z,40.64
2018-09-29T10:12:03.439Z,40.55
2018-09-29T10:13:13.105Z,40.55
2018-09-29T10:14:22.539Z,40.45
2018-09-29T10:15:31.429Z,40.45
2018-09-29T10:16:40.850Z,40.55
2018-09-29T10:17:50.548Z,40.55
2018-09-29T10:18:59.999Z,40.74
2018-09-29T10:20:09.418Z,40.57
2018-09-29T10:21:18.587Z,40.74
2018-09-29T10:22:28.512Z,40.64
2018-09-29T10:23:38.198Z,40.66
2018-09-29T10:24:47.882Z,40.64
2018-09-29T10:25:57.043Z,40.55
2018-09-29T10:27:06.901Z,40.64
2018-09-29T10:28:15.812Z,40.55
2018-09-29T10:29:25.778Z,40.45
2018-09-29T10:30:34.681Z,40.64
2018-09-29T10:31:43.869Z,40.55
2018-09-29T10:32:53.562Z,40.57
2018-09-29T10:34:02.992Z,40.57
2018-09-29T10:35:12.691Z,40.64
2018-09-29T10:36:22.460Z,40.57
2018-09-29T10:37:31.754Z,40.64
2018-09-29T10:38:41.181Z,40.64
2018-09-29T10:39:50.609Z,40.66
2018-09-29T10:41:00.547Z,40.55
2018-09-29T10:42:09.716Z,40.64
2018-09-29T10:43:19.408Z,40.76
2018-09-29T10:44:28.826Z,40.47
2018-09-29T10:45:38.762Z,40.45
2018-09-29T10:46:48.438Z,40.66
2018-09-29T10:47:57.603Z,40.55
2018-09-29T10:49:07.282Z,40.64
2018-09-29T10:50:16.975Z,40.64
2018-09-29T10:51:26.393Z,40.94
2018-09-29T10:52:35.831Z,40.64
2018-09-29T10:53:45.552Z,40.95
2018-09-29T10:54:54.970Z,40.74
2018-09-29T10:56:04.408Z,40.66
2018-09-29T10:57:14.089Z,40.66
2018-09-29T10:58:23.268Z,40.66
2018-09-29T10:59:32.717Z,40.55
2018-09-29T11:00:42.180Z,40.64
2018-09-29T11:01:51.667Z,40.76
2018-09-29T11:03:00.852Z,40.57
2018-09-29T11:04:10.282Z,40.74
2018-09-29T11:05:19.451Z,40.66
2018-09-29T11:06:28.624Z,40.57
2018-09-29T11:07:38.317Z,40.74
2018-09-29T11:08:47.759Z,40.66
2018-09-29T11:09:57.194Z,40.66
2018-09-29T11:11:06.612Z,40.57
2018-09-29T11:12:16.279Z,40.57
2018-09-29T11:13:25.449Z,40.57
2018-09-29T11:14:34.538Z,40.86
2018-09-29T11:15:43.981Z,40.84
2018-09-29T11:16:53.950Z,40.76
2018-09-29T11:18:16.210Z,40.76
2018-09-29T11:19:25.367Z,40.86
2018-09-29T11:20:34.555Z,40.76
2018-09-29T11:21:44.025Z,40.57
2018-09-29T11:22:53.222Z,40.64
2018-09-29T11:24:02.149Z,40.76
2018-09-29T11:25:11.835Z,40.86
2018-09-29T11:26:21.002Z,40.86
2018-09-29T11:27:30.170Z,40.76
2018-09-29T11:28:39.395Z,40.95
2018-09-29T11:29:49.194Z,40.76
2018-09-29T11:30:58.868Z,40.86
2018-09-29T11:32:08.307Z,40.86
2018-09-29T11:33:17.213Z,40.76
2018-09-29T11:34:26.186Z,40.95
2018-09-29T11:35:36.144Z,40.95
2018-09-29T11:36:45.849Z,40.95
2018-09-29T11:37:55.284Z,40.86
2018-09-29T11:39:04.742Z,40.86
2018-09-29T11:40:14.556Z,40.76
2018-09-29T11:41:24.342Z,40.86
2018-09-29T11:42:33.784Z,41.05
2018-09-29T11:43:42.959Z,40.95
2018-09-29T11:44:52.746Z,41.05
2018-09-29T11:46:02.276Z,40.95
2018-09-29T11:47:11.437Z,40.95
2018-09-29T11:48:20.858Z,40.95
2018-09-29T11:49:30.012Z,40.95
2018-09-29T11:50:39.252Z,41.14
2018-09-29T11:51:48.694Z,41.05
2018-09-29T11:52:58.819Z,41.24
2018-09-29T11:54:08.509Z,41.24
2018-09-29T11:55:17.675Z,41.14
2018-09-29T11:56:27.103Z,41.14
2018-09-29T11:57:36.526Z,41.24
2018-09-29T11:58:45.953Z,41.14
2018-09-29T11:59:55.644Z,41.24
2018-09-29T12:01:04.821Z,41.24
2018-09-29T12:02:14.050Z,41.14
2018-09-29T12:03:23.547Z,41.34
2018-09-29T12:04:32.983Z,41.34
2018-09-29T12:05:42.167Z,41.34
2018-09-29T12:06:51.376Z,41.24
2018-09-29T12:08:00.861Z,41.14
2018-09-29T12:09:11.099Z,41.44
2018-09-29T12:10:20.806Z,41.44
2018-09-29T12:11:30.507Z,41.24
2018-09-29T12:12:39.685Z,41.34
2018-09-29T12:13:49.466Z,41.44
2018-09-29T12:14:59.742Z,41.44
2018-09-29T12:16:09.156Z,41.44
2018-09-29T12:17:18.836Z,41.34
2018-09-29T12:18:28.266Z,41.44
2018-09-29T12:19:37.948Z,41.53
2018-09-29T12:20:47.383Z,41.53
2018-09-29T12:21:56.580Z,41.53
2018-09-29T12:23:05.758Z,42.02
2018-09-29T12:24:14.650Z,41.92
2018-09-29T12:25:24.598Z,41.63
2018-09-29T12:26:34.027Z,41.82
2018-09-29T12:27:43.450Z,41.92
2018-09-29T12:28:52.870Z,41.82
2018-09-29T12:30:02.215Z,41.92
2018-09-29T12:31:11.628Z,41.82
2018-09-29T12:32:21.303Z,41.82
2018-09-29T12:33:30.733Z,41.82
2018-09-29T12:34:39.890Z,41.82
2018-09-29T12:35:49.583Z,41.63
2018-09-29T12:36:58.957Z,41.63
2018-09-29T12:38:08.159Z,41.63
2018-09-29T12:39:17.317Z,41.63
2018-09-29T12:40:26.751Z,41.63
2018-09-29T12:41:36.170Z,41.63
2018-09-29T12:42:45.846Z,41.72
2018-09-29T12:43:55.033Z,41.63
2018-09-29T12:45:04.729Z,41.63
2018-09-29T12:46:14.163Z,41.63
2018-09-29T12:47:23.915Z,41.63
2018-09-29T12:48:33.336Z,41.63
2018-09-29T12:49:42.755Z,41.63
2018-09-29T12:50:52.435Z,41.72
2018-09-29T12:52:02.351Z,41.72
2018-09-29T12:53:11.572Z,41.72
2018-09-29T12:54:21.041Z,41.53
2018-09-29T12:55:29.969Z,41.63
2018-09-29T12:56:39.125Z,41.63
2018-09-29T12:57:49.076Z,41.44
2018-09-29T12:58:58.923Z,41.63
2018-09-29T13:00:08.989Z,41.63
2018-09-29T13:01:18.410Z,41.63
2018-09-29T13:02:27.630Z,41.63
2018-09-29T13:03:36.516Z,41.63
2018-09-29T13:04:45.413Z,41.63
2018-09-29T13:05:54.830Z,41.63
2018-09-29T13:07:04.245Z,41.63
2018-09-29T13:08:13.660Z,41.63
2018-09-29T13:09:23.109Z,41.63
2018-09-29T13:10:32.553Z,41.72
2018-09-29T13:11:42.002Z,41.63
2018-09-29T13:12:51.434Z,41.63
2018-09-29T13:14:01.304Z,41.63
2018-09-29T13:15:10.195Z,41.63
2018-09-29T13:16:19.641Z,41.63
2018-09-29T13:17:29.321Z,41.82
2018-09-29T13:18:39.261Z,41.53
2018-09-29T13:19:48.412Z,41.63
2018-09-29T13:20:57.848Z,41.63
2018-09-29T13:22:07.563Z,41.63
2018-09-29T13:23:16.720Z,41.82
2018-09-29T13:24:25.937Z,41.72
2018-09-29T13:25:35.646Z,41.82
2018-09-29T13:26:44.843Z,41.92
2018-09-29T13:27:54.256Z,41.92
2018-09-29T13:29:03.670Z,41.53
2018-09-29T13:30:13.617Z,41.53
2018-09-29T13:31:23.024Z,41.44
2018-09-29T13:32:32.487Z,41.53
2018-09-29T13:33:42.453Z,41.34
2018-09-29T13:34:52.405Z,41.24
2018-09-29T13:36:02.099Z,41.44
2018-09-29T13:37:11.350Z,41.34
2018-09-29T13:38:21.076Z,41.34
2018-09-29T13:39:31.453Z,41.36
2018-09-29T13:40:40.620Z,41.27
2018-09-29T13:41:50.037Z,41.17
2018-09-29T13:42:59.208Z,41.17
2018-09-29T13:44:08.625Z,41.17
2018-09-29T13:45:18.301Z,41.27
2018-09-29T13:46:28.228Z,41.17
2018-09-29T13:47:37.665Z,41.17
2018-09-29T13:48:47.116Z,41.17
2018-09-29T13:49:56.573Z,41.27
2018-09-29T13:51:06.256Z,41.17
2018-09-29T13:52:15.228Z,41.07
2018-09-29T13:53:25.176Z,41.27
2018-09-29T13:54:34.917Z,41.27
2018-09-29T13:55:44.349Z,41.17
2018-09-29T13:56:53.549Z,41.07
2018-09-29T13:58:02.963Z,41.27
2018-09-29T13:59:12.401Z,41.27
2018-09-29T14:00:21.837Z,41.27
2018-09-29T14:01:31.009Z,41.07
2018-09-29T14:02:40.177Z,41.07
2018-09-29T14:03:49.867Z,41.17
2018-09-29T14:04:59.577Z,41.17
2018-09-29T14:06:09.305Z,41.27
2018-09-29T14:07:19.007Z,41.27
2018-09-29T14:08:28.741Z,41.17
2018-09-29T14:09:38.558Z,41.27
2018-09-29T14:10:47.981Z,41.27
2018-09-29T14:11:57.407Z,41.36
2018-09-29T14:13:06.858Z,41.36
2018-09-29T14:14:15.775Z,41.55
2018-09-29T14:15:24.941Z,41.55
2018-09-29T14:16:34.626Z,41.36
2018-09-29T14:17:44.655Z,41.65
2018-09-29T14:18:54.343Z,41.75
2018-09-29T14:20:04.256Z,41.65
2018-09-29T14:21:13.717Z,41.75
2018-09-29T14:22:22.957Z,41.65
2018-09-29T14:23:32.102Z,41.55
2018-09-29T14:24:41.518Z,41.55
2018-09-29T14:25:51.203Z,41.75
2018-09-29T14:27:00.878Z,41.75
2018-09-29T14:28:10.043Z,41.94
2018-09-29T14:29:19.469Z,41.65
2018-09-29T14:30:29.186Z,41.65
2018-09-29T14:31:38.864Z,42.03
2018-09-29T14:32:48.282Z,41.65
2018-09-29T14:33:57.438Z,41.84
2018-09-29T14:35:06.644Z,41.94
2018-09-29T14:36:16.080Z,41.84
2018-09-29T14:37:25.261Z,41.65
2018-09-29T14:38:33.893Z,41.75
2018-09-29T14:39:43.844Z,41.75
2018-09-29T14:40:53.274Z,41.75
2018-09-29T14:42:03.239Z,41.84
2018-09-29T14:43:13.003Z,42.13
2018-09-29T14:44:22.164Z,41.75
2018-09-29T14:45:31.329Z,41.75
2018-09-29T14:46:40.754Z,42.03
2018-09-29T14:47:50.243Z,41.94
2018-09-29T14:48:59.661Z,41.94
2018-09-29T14:50:08.835Z,42.03
2018-09-29T14:51:18.758Z,41.94
2018-09-29T14:52:28.424Z,41.84
2018-09-29T14:53:38.398Z,41.94
2018-09-29T14:54:48.096Z,41.94
2018-09-29T14:55:57.267Z,41.84